<?xml version="1.0" encoding="UTF-8" standalone="no" ?>
<gpx xmlns="http://www.topografix.com/GPX/1/1" xmlns:xsi="http://www.w3.org/2001/XMLSchema-instance" xsi:schemaLocation="http://www.topografix.com/GPX/1/1 http://www.topografix.com/GPX/1/1/gpx.xsd" version="1.1" creator="VisuGPX - https://www.visugpx.com">
  <metadata>
    <name>rando consac 9 km</name>
    <desc><![CDATA[les photos de la rando sont dispo en suivant le lien [url]https://rando-pedestre-33.over-blog.com/2022/08/rando-consac-8.61-km.html[/url]]]></desc>
  </metadata>
  <trk>
    <name><![CDATA[rando consac 9 km]]></name>
    <trkseg>
      <trkpt lat="45.41769" lon="-0.59459">
        <ele>67</ele>
        <time>2018-05-25T17:20:47Z</time>
      </trkpt>
      <trkpt lat="45.41824" lon="-0.59392">
        <ele>66</ele>
        <time>2018-05-25T17:21:47Z</time>
      </trkpt>
      <trkpt lat="45.41779" lon="-0.59255">
        <ele>63</ele>
        <time>2018-05-25T17:22:47Z</time>
      </trkpt>
      <trkpt lat="45.41731" lon="-0.59002">
        <ele>59</ele>
        <time>2018-05-25T17:23:47Z</time>
      </trkpt>
      <trkpt lat="45.4168" lon="-0.58787">
        <ele>58</ele>
        <time>2018-05-25T17:24:47Z</time>
      </trkpt>
      <trkpt lat="45.41704" lon="-0.58671">
        <ele>59</ele>
        <time>2018-05-25T17:25:47Z</time>
      </trkpt>
      <trkpt lat="45.41725" lon="-0.58547">
        <ele>60</ele>
        <time>2018-05-25T17:26:47Z</time>
      </trkpt>
      <trkpt lat="45.41773" lon="-0.585">
        <ele>60</ele>
        <time>2018-05-25T17:27:47Z</time>
      </trkpt>
      <trkpt lat="45.41894" lon="-0.58487">
        <ele>58</ele>
        <time>2018-05-25T17:28:47Z</time>
      </trkpt>
      <trkpt lat="45.41993" lon="-0.58491">
        <ele>57</ele>
        <time>2018-05-25T17:29:47Z</time>
      </trkpt>
      <trkpt lat="45.42098" lon="-0.58487">
        <ele>55</ele>
        <time>2018-05-25T17:30:47Z</time>
      </trkpt>
      <trkpt lat="45.42192" lon="-0.58453">
        <ele>53</ele>
        <time>2018-05-25T17:31:47Z</time>
      </trkpt>
      <trkpt lat="45.42246" lon="-0.58414">
        <ele>52</ele>
        <time>2018-05-25T17:32:47Z</time>
      </trkpt>
      <trkpt lat="45.42372" lon="-0.5838">
        <ele>51</ele>
        <time>2018-05-25T17:33:47Z</time>
      </trkpt>
      <trkpt lat="45.42499" lon="-0.58345">
        <ele>50</ele>
        <time>2018-05-25T17:34:47Z</time>
      </trkpt>
      <trkpt lat="45.42574" lon="-0.5835">
        <ele>48</ele>
        <time>2018-05-25T17:35:47Z</time>
      </trkpt>
      <trkpt lat="45.42746" lon="-0.5853">
        <ele>53</ele>
        <time>2018-05-25T17:36:47Z</time>
      </trkpt>
      <trkpt lat="45.42854" lon="-0.58628">
        <ele>56</ele>
        <time>2018-05-25T17:37:47Z</time>
      </trkpt>
      <trkpt lat="45.42999" lon="-0.58731">
        <ele>53</ele>
        <time>2018-05-25T17:38:47Z</time>
      </trkpt>
      <trkpt lat="45.4308" lon="-0.58834">
        <ele>53</ele>
        <time>2018-05-25T17:39:47Z</time>
      </trkpt>
      <trkpt lat="45.43146" lon="-0.58937">
        <ele>53</ele>
        <time>2018-05-25T17:40:47Z</time>
      </trkpt>
      <trkpt lat="45.43192" lon="-0.58925">
        <ele>53</ele>
        <time>2018-05-25T17:41:47Z</time>
      </trkpt>
      <trkpt lat="45.43276" lon="-0.58963">
        <ele>53</ele>
        <time>2018-05-25T17:42:47Z</time>
      </trkpt>
      <trkpt lat="45.43318" lon="-0.58989">
        <ele>52</ele>
        <time>2018-05-25T17:43:47Z</time>
      </trkpt>
      <trkpt lat="45.43442" lon="-0.58959">
        <ele>51</ele>
        <time>2018-05-25T17:44:47Z</time>
      </trkpt>
      <trkpt lat="45.43508" lon="-0.58925">
        <ele>53</ele>
        <time>2018-05-25T17:45:47Z</time>
      </trkpt>
      <trkpt lat="45.4358" lon="-0.58916">
        <ele>53</ele>
        <time>2018-05-25T17:46:47Z</time>
      </trkpt>
      <trkpt lat="45.43634" lon="-0.58916">
        <ele>54</ele>
        <time>2018-05-25T17:47:47Z</time>
      </trkpt>
      <trkpt lat="45.43722" lon="-0.5901">
        <ele>54</ele>
        <time>2018-05-25T17:48:47Z</time>
      </trkpt>
      <trkpt lat="45.43761" lon="-0.59053">
        <ele>55</ele>
        <time>2018-05-25T17:49:47Z</time>
      </trkpt>
      <trkpt lat="45.43935" lon="-0.59182">
        <ele>54</ele>
        <time>2018-05-25T17:50:47Z</time>
      </trkpt>
      <trkpt lat="45.44056" lon="-0.59242">
        <ele>54</ele>
        <time>2018-05-25T17:51:47Z</time>
      </trkpt>
      <trkpt lat="45.44152" lon="-0.59272">
        <ele>52</ele>
        <time>2018-05-25T17:52:47Z</time>
      </trkpt>
      <trkpt lat="45.44243" lon="-0.59324">
        <ele>49</ele>
        <time>2018-05-25T17:53:47Z</time>
      </trkpt>
      <trkpt lat="45.44348" lon="-0.59341">
        <ele>48</ele>
        <time>2018-05-25T17:54:47Z</time>
      </trkpt>
      <trkpt lat="45.44384" lon="-0.5941">
        <ele>48</ele>
        <time>2018-05-25T17:55:47Z</time>
      </trkpt>
      <trkpt lat="45.4442" lon="-0.5947">
        <ele>48</ele>
        <time>2018-05-25T17:56:47Z</time>
      </trkpt>
      <trkpt lat="45.44465" lon="-0.59543">
        <ele>51</ele>
        <time>2018-05-25T17:57:47Z</time>
      </trkpt>
      <trkpt lat="45.44493" lon="-0.59658">
        <ele>53</ele>
        <time>2018-05-25T17:58:47Z</time>
      </trkpt>
      <trkpt lat="45.44514" lon="-0.59693">
        <ele>52</ele>
        <time>2018-05-25T17:59:47Z</time>
      </trkpt>
      <trkpt lat="45.44444" lon="-0.59736">
        <ele>53</ele>
        <time>2018-05-25T18:00:47Z</time>
      </trkpt>
      <trkpt lat="45.44354" lon="-0.59804">
        <ele>49</ele>
        <time>2018-05-25T18:01:47Z</time>
      </trkpt>
      <trkpt lat="45.44252" lon="-0.59882">
        <ele>46</ele>
        <time>2018-05-25T18:02:47Z</time>
      </trkpt>
      <trkpt lat="45.44122" lon="-0.59916">
        <ele>46</ele>
        <time>2018-05-25T18:03:47Z</time>
      </trkpt>
      <trkpt lat="45.44179" lon="-0.5998">
        <ele>47</ele>
        <time>2018-05-25T18:04:47Z</time>
      </trkpt>
      <trkpt lat="45.44231" lon="-0.6004">
        <ele>46</ele>
        <time>2018-05-25T18:05:47Z</time>
      </trkpt>
      <trkpt lat="45.44161" lon="-0.60053">
        <ele>47</ele>
        <time>2018-05-25T18:06:47Z</time>
      </trkpt>
      <trkpt lat="45.4408" lon="-0.60079">
        <ele>47</ele>
        <time>2018-05-25T18:07:47Z</time>
      </trkpt>
      <trkpt lat="45.44026" lon="-0.60092">
        <ele>45</ele>
        <time>2018-05-25T18:08:47Z</time>
      </trkpt>
      <trkpt lat="45.43987" lon="-0.60096">
        <ele>45</ele>
        <time>2018-05-25T18:09:47Z</time>
      </trkpt>
      <trkpt lat="45.43923" lon="-0.60152">
        <ele>43</ele>
        <time>2018-05-25T18:10:47Z</time>
      </trkpt>
      <trkpt lat="45.43866" lon="-0.60238">
        <ele>43</ele>
        <time>2018-05-25T18:11:47Z</time>
      </trkpt>
      <trkpt lat="45.43764" lon="-0.60311">
        <ele>45</ele>
        <time>2018-05-25T18:12:47Z</time>
      </trkpt>
      <trkpt lat="45.43586" lon="-0.60367">
        <ele>47</ele>
        <time>2018-05-25T18:13:47Z</time>
      </trkpt>
      <trkpt lat="45.43586" lon="-0.60294">
        <ele>47</ele>
        <time>2018-05-25T18:14:47Z</time>
      </trkpt>
      <trkpt lat="45.43538" lon="-0.60315">
        <ele>48</ele>
        <time>2018-05-25T18:15:47Z</time>
      </trkpt>
      <trkpt lat="45.43469" lon="-0.60315">
        <ele>49</ele>
        <time>2018-05-25T18:16:47Z</time>
      </trkpt>
      <trkpt lat="45.43409" lon="-0.60276">
        <ele>49</ele>
        <time>2018-05-25T18:17:47Z</time>
      </trkpt>
      <trkpt lat="45.43336" lon="-0.60315">
        <ele>51</ele>
        <time>2018-05-25T18:18:47Z</time>
      </trkpt>
      <trkpt lat="45.4327" lon="-0.60367">
        <ele>51</ele>
        <time>2018-05-25T18:19:47Z</time>
      </trkpt>
      <trkpt lat="45.43192" lon="-0.60418">
        <ele>52</ele>
        <time>2018-05-25T18:20:47Z</time>
      </trkpt>
      <trkpt lat="45.43134" lon="-0.60452">
        <ele>53</ele>
        <time>2018-05-25T18:21:47Z</time>
      </trkpt>
      <trkpt lat="45.43053" lon="-0.60482">
        <ele>55</ele>
        <time>2018-05-25T18:22:47Z</time>
      </trkpt>
      <trkpt lat="45.42945" lon="-0.60478">
        <ele>56</ele>
        <time>2018-05-25T18:23:47Z</time>
      </trkpt>
      <trkpt lat="45.42836" lon="-0.60465">
        <ele>54</ele>
        <time>2018-05-25T18:24:47Z</time>
      </trkpt>
      <trkpt lat="45.42728" lon="-0.60448">
        <ele>58</ele>
        <time>2018-05-25T18:25:47Z</time>
      </trkpt>
      <trkpt lat="45.42647" lon="-0.60435">
        <ele>60</ele>
        <time>2018-05-25T18:26:47Z</time>
      </trkpt>
      <trkpt lat="45.42559" lon="-0.60418">
        <ele>61</ele>
        <time>2018-05-25T18:27:47Z</time>
      </trkpt>
      <trkpt lat="45.42517" lon="-0.60388">
        <ele>61</ele>
        <time>2018-05-25T18:28:47Z</time>
      </trkpt>
      <trkpt lat="45.42505" lon="-0.60332">
        <ele>63</ele>
        <time>2018-05-25T18:29:47Z</time>
      </trkpt>
      <trkpt lat="45.42487" lon="-0.60234">
        <ele>63</ele>
        <time>2018-05-25T18:30:47Z</time>
      </trkpt>
      <trkpt lat="45.42475" lon="-0.60113">
        <ele>65</ele>
        <time>2018-05-25T18:31:47Z</time>
      </trkpt>
      <trkpt lat="45.42457" lon="-0.60032">
        <ele>66</ele>
        <time>2018-05-25T18:32:47Z</time>
      </trkpt>
      <trkpt lat="45.42433" lon="-0.59916">
        <ele>66</ele>
        <time>2018-05-25T18:33:47Z</time>
      </trkpt>
      <trkpt lat="45.42415" lon="-0.59839">
        <ele>67</ele>
        <time>2018-05-25T18:34:47Z</time>
      </trkpt>
      <trkpt lat="45.42424" lon="-0.59783">
        <ele>68</ele>
        <time>2018-05-25T18:35:47Z</time>
      </trkpt>
      <trkpt lat="45.42394" lon="-0.59697">
        <ele>67</ele>
        <time>2018-05-25T18:36:47Z</time>
      </trkpt>
      <trkpt lat="45.42388" lon="-0.59586">
        <ele>65</ele>
        <time>2018-05-25T18:37:47Z</time>
      </trkpt>
      <trkpt lat="45.42357" lon="-0.595">
        <ele>65</ele>
        <time>2018-05-25T18:38:47Z</time>
      </trkpt>
      <trkpt lat="45.42351" lon="-0.59457">
        <ele>64</ele>
        <time>2018-05-25T18:39:47Z</time>
      </trkpt>
      <trkpt lat="45.42297" lon="-0.5953">
        <ele>66</ele>
        <time>2018-05-25T18:40:47Z</time>
      </trkpt>
      <trkpt lat="45.42237" lon="-0.59521">
        <ele>66</ele>
        <time>2018-05-25T18:41:47Z</time>
      </trkpt>
      <trkpt lat="45.42168" lon="-0.59525">
        <ele>63</ele>
        <time>2018-05-25T18:42:47Z</time>
      </trkpt>
      <trkpt lat="45.42086" lon="-0.59564">
        <ele>62</ele>
        <time>2018-05-25T18:43:47Z</time>
      </trkpt>
      <trkpt lat="45.42047" lon="-0.59581">
        <ele>62</ele>
        <time>2018-05-25T18:44:47Z</time>
      </trkpt>
      <trkpt lat="45.41987" lon="-0.59564">
        <ele>62</ele>
        <time>2018-05-25T18:45:47Z</time>
      </trkpt>
      <trkpt lat="45.41933" lon="-0.59525">
        <ele>63</ele>
        <time>2018-05-25T18:46:47Z</time>
      </trkpt>
      <trkpt lat="45.41872" lon="-0.59508">
        <ele>64</ele>
        <time>2018-05-25T18:47:47Z</time>
      </trkpt>
      <trkpt lat="45.41815" lon="-0.59538">
        <ele>64</ele>
        <time>2018-05-25T18:48:47Z</time>
      </trkpt>
      <trkpt lat="45.41758" lon="-0.59491">
        <ele>66</ele>
        <time>2018-05-25T18:49:47Z</time>
      </trkpt>
    </trkseg>
  </trk>
</gpx>